createdAt,value
2023-01-01T00:02:20.443Z,14.27
2023-01-01T00:07:23.255Z,5.83
2023-01-01T00:12:26.076Z,4.78
2023-01-01T00:17:30.230Z,7.68
2023-01-01T00:22:53.866Z,4.47
2023-01-01T00:27:56.033Z,5.90
2023-01-01T00:32:58.695Z,5.57
2023-01-01T00:38:01.410Z,7.05
2023-01-01T00:43:04.227Z,5.07
2023-01-01T00:48:07.121Z,10.63
2023-01-01T00:53:09.836Z,4.40
2023-01-01T00:58:12.711Z,4.67
2023-01-01T01:03:36.297Z,5.53
2023-01-01T01:08:44.661Z,5.10
2023-01-01T01:13:50.035Z,4.87
2023-01-01T01:18:54.704Z,6.00
2023-01-01T01:24:01.796Z,4.27
2023-01-01T01:29:04.592Z,3.33
2023-01-01T01:34:09.736Z,4.57
2023-01-01T01:39:16.551Z,3.83
2023-01-01T01:44:47.862Z,6.20
2023-01-01T01:49:57.706Z,5.23
2023-01-01T01:55:02.461Z,4.20
2023-01-01T02:00:10.960Z,5.47
2023-01-01T02:05:14.426Z,4.30
2023-01-01T02:10:17.456Z,5.45
2023-01-01T02:15:21.781Z,4.20
2023-01-01T02:20:47.144Z,3.72
2023-01-01T02:26:09.360Z,4.38
2023-01-01T02:31:22.814Z,4.43
2023-01-01T02:36:28.584Z,5.03
2023-01-01T02:41:45.457Z,4.40
2023-01-01T02:46:48.524Z,4.35
2023-01-01T02:52:20.040Z,3.80
2023-01-01T02:57:37.155Z,4.10
2023-01-01T03:02:54.846Z,4.07
2023-01-01T03:08:10.902Z,3.10
2023-01-01T03:13:38.559Z,4.47
2023-01-01T03:19:11.916Z,4.28
2023-01-01T03:24:32.898Z,3.43
2023-01-01T03:29:39.895Z,4.63
2023-01-01T03:34:50.765Z,2.90
2023-01-01T03:39:59.322Z,3.40
2023-01-01T03:45:06.853Z,4.45
2023-01-01T03:50:10.031Z,5.10
2023-01-01T03:55:32.385Z,3.10
2023-01-01T04:00:40.827Z,4.03
2023-01-01T04:05:44.556Z,4.20
2023-01-01T04:10:55.067Z,3.97
2023-01-01T04:15:57.741Z,4.10
2023-01-01T04:21:00.436Z,3.88
2023-01-01T04:26:03.139Z,3.40
2023-01-01T04:31:05.840Z,5.57
2023-01-01T04:36:10.993Z,5.78
2023-01-01T04:41:13.671Z,8.30
2023-01-01T04:46:17.500Z,8.45
2023-01-01T04:51:21.627Z,8.23
2023-01-01T04:56:24.354Z,6.30
2023-01-01T05:01:29.774Z,5.82
2023-01-01T05:06:32.561Z,6.73
2023-01-01T05:11:35.199Z,6.40
2023-01-01T05:16:39.972Z,6.47
2023-01-01T05:21:42.590Z,4.97
2023-01-01T05:26:45.666Z,5.43
2023-01-01T05:31:48.927Z,5.33
2023-01-01T05:36:51.603Z,6.65
2023-01-01T05:41:54.345Z,7.43
2023-01-01T05:46:57.326Z,11.45
2023-01-01T05:52:00.031Z,7.93
2023-01-01T05:57:02.698Z,8.47
2023-01-01T06:02:05.488Z,8.63
2023-01-01T06:07:08.285Z,7.40
2023-01-01T06:12:10.942Z,11.82
2023-01-01T06:17:13.585Z,9.68
2023-01-01T06:22:16.227Z,9.47
2023-01-01T06:27:18.906Z,8.65
2023-01-01T06:32:21.807Z,8.10
2023-01-01T06:37:24.620Z,10.07
2023-01-01T06:42:33.587Z,13.48
2023-01-01T06:47:37.346Z,12.67
2023-01-01T06:52:42.081Z,12.80
2023-01-01T06:57:44.735Z,14.97
2023-01-01T07:02:49.058Z,12.00
2023-01-01T07:07:51.934Z,11.60
2023-01-01T07:12:54.680Z,13.47
2023-01-01T07:17:57.293Z,14.00
2023-01-01T07:23:02.461Z,12.77
2023-01-01T07:28:05.080Z,13.38
2023-01-01T07:33:13.230Z,12.77
2023-01-01T07:38:16.418Z,13.67
2023-01-01T07:43:19.076Z,14.60
2023-01-01T07:48:21.922Z,17.00
2023-01-01T07:53:24.633Z,16.35
2023-01-01T07:58:27.353Z,19.38
2023-01-01T08:03:30.097Z,16.67
2023-01-01T08:08:32.852Z,21.15
2023-01-01T08:13:35.828Z,20.93
2023-01-01T08:18:38.782Z,19.60
2023-01-01T08:23:41.540Z,20.17
2023-01-01T08:28:44.922Z,17.90
2023-01-01T08:33:47.699Z,16.40
2023-01-01T08:38:50.478Z,17.57
2023-01-01T08:43:53.263Z,22.40
2023-01-01T08:48:55.887Z,19.27
2023-01-01T08:53:58.567Z,21.53
2023-01-01T08:59:04.548Z,20.60
2023-01-01T09:04:15.172Z,15.50
2023-01-01T09:09:19.737Z,20.15
2023-01-01T09:14:23.125Z,19.73
2023-01-01T09:19:26.621Z,17.43
2023-01-01T09:24:29.306Z,18.23
2023-01-01T09:29:32.311Z,19.17
2023-01-01T09:34:35.007Z,17.48
2023-01-01T09:39:37.755Z,15.52
2023-01-01T09:44:52.414Z,16.40
2023-01-01T09:50:01.089Z,15.18
2023-01-01T09:55:10.050Z,17.90
2023-01-01T10:00:18.558Z,17.52
2023-01-01T10:05:56.004Z,14.45
2023-01-01T10:11:15.252Z,15.20
2023-01-01T10:16:37.667Z,14.68
2023-01-01T10:21:47.306Z,14.93
2023-01-01T10:26:52.656Z,12.38
2023-01-01T10:31:58.063Z,14.38
2023-01-01T10:37:02.887Z,13.67
2023-01-01T10:42:05.616Z,12.68
2023-01-01T10:47:31.594Z,15.47
2023-01-01T10:52:40.948Z,15.25
2023-01-01T10:57:43.906Z,14.77
2023-01-01T11:02:47.239Z,15.07
2023-01-01T11:07:50.519Z,15.77
2023-01-01T11:13:10.085Z,13.57
2023-01-01T11:18:20.176Z,14.93
2023-01-01T11:23:38.469Z,13.77
2023-01-01T11:28:42.068Z,14.37
2023-01-01T11:33:54.824Z,14.15
2023-01-01T11:39:22.233Z,15.30
2023-01-01T11:44:42.226Z,13.68
2023-01-01T11:49:45.147Z,15.10
2023-01-01T11:54:48.800Z,15.07
2023-01-01T12:00:01.108Z,13.95
2023-01-01T12:05:32.721Z,14.97
2023-01-01T12:11:03.976Z,14.70
2023-01-01T12:16:12.453Z,17.92
2023-01-01T12:21:20.263Z,16.53
2023-01-01T12:26:34.657Z,15.65
2023-01-01T12:31:43.483Z,15.43
2023-01-01T12:37:11.176Z,17.48
2023-01-01T12:42:29.338Z,15.60
2023-01-01T12:47:50.179Z,16.67
2023-01-01T12:53:02.129Z,14.80
2023-01-01T12:58:20.404Z,14.27
2023-01-01T13:03:37.037Z,17.85
2023-01-01T13:08:42.128Z,14.93
2023-01-01T13:13:44.855Z,15.03
2023-01-01T13:18:50.589Z,13.52
2023-01-01T13:23:56.283Z,14.93
2023-01-01T13:28:59.060Z,13.40
2023-01-01T13:34:40.521Z,15.95
2023-01-01T13:40:03.304Z,14.80
2023-01-01T13:45:52.329Z,15.73
2023-01-01T13:51:02.827Z,18.60
2023-01-01T13:56:11.727Z,16.92
2023-01-01T14:01:40.800Z,16.05
2023-01-01T14:06:49.915Z,18.57
2023-01-01T14:11:52.725Z,20.15
2023-01-01T14:17:01.249Z,23.77
2023-01-01T14:22:12.266Z,23.25
2023-01-01T14:27:21.073Z,20.98
2023-01-01T14:32:25.499Z,21.97
2023-01-01T14:37:28.623Z,20.40
2023-01-01T14:42:32.562Z,25.73
2023-01-01T14:47:36.642Z,23.38
2023-01-01T14:52:40.148Z,24.05
2023-01-01T14:57:48.197Z,24.23
2023-01-01T15:02:51.148Z,23.45
2023-01-01T15:07:59.244Z,20.87
2023-01-01T15:13:06.571Z,17.55
2023-01-01T15:18:35.470Z,19.65
2023-01-01T15:23:38.735Z,18.17
2023-01-01T15:28:43.187Z,19.38
2023-01-01T15:33:49.845Z,23.03
2023-01-01T15:38:53.396Z,22.48
2023-01-01T15:44:19.443Z,19.33
2023-01-01T15:49:26.597Z,23.30
2023-01-01T15:54:30.014Z,20.80
2023-01-01T15:59:35.677Z,23.80
2023-01-01T16:04:40.469Z,22.50
2023-01-01T16:09:44.055Z,23.10
2023-01-01T16:14:47.116Z,24.27
2023-01-01T16:19:51.803Z,24.50
2023-01-01T16:24:56.177Z,27.80
2023-01-01T16:29:58.946Z,24.17
2023-01-01T16:35:06.631Z,27.25
2023-01-01T16:40:12.787Z,25.00
2023-01-01T16:45:19.197Z,22.60
2023-01-01T16:50:22.233Z,25.37
2023-01-01T16:55:24.937Z,23.08
2023-01-01T17:00:27.833Z,25.10
2023-01-01T17:05:30.697Z,37.50
2023-01-01T17:10:33.400Z,31.20
2023-01-01T17:15:36.169Z,31.10
2023-01-01T17:20:38.887Z,22.15
2023-01-01T17:25:41.511Z,23.45
2023-01-01T17:30:44.277Z,27.30
2023-01-01T17:35:46.956Z,24.33
2023-01-01T17:40:49.953Z,20.87
2023-01-01T17:45:52.735Z,27.92
2023-01-01T17:50:55.503Z,26.13
2023-01-01T17:55:58.505Z,29.60
2023-01-01T18:01:30.990Z,27.30
2023-01-01T18:06:41.128Z,31.83
2023-01-01T18:11:45.416Z,24.50
2023-01-01T18:16:48.339Z,27.08
2023-01-01T18:21:51.125Z,28.60
2023-01-01T18:26:54.040Z,33.13
2023-01-01T18:31:57.782Z,32.87
2023-01-01T18:37:00.606Z,28.27
2023-01-01T18:42:32.572Z,21.98
2023-01-01T18:47:37.319Z,24.03
2023-01-01T18:52:40.025Z,24.48
2023-01-01T18:57:45.345Z,24.63
2023-01-01T19:03:04.687Z,23.98
2023-01-01T19:08:07.541Z,22.65
2023-01-01T19:13:22.601Z,19.67
2023-01-01T19:18:32.504Z,19.23
2023-01-01T19:23:39.024Z,19.67
2023-01-01T19:28:44.419Z,21.83
2023-01-01T19:33:47.446Z,29.92
2023-01-01T19:38:50.254Z,28.37
2023-01-01T19:43:53.059Z,27.85
2023-01-01T19:48:56.155Z,32.23
2023-01-01T19:53:59.216Z,37.40
2023-01-01T19:59:02.063Z,35.22
2023-01-01T20:04:05.105Z,38.00
2023-01-01T20:09:07.987Z,39.03
2023-01-01T20:14:10.637Z,38.73
2023-01-01T20:19:13.257Z,42.08
2023-01-01T20:24:17.826Z,43.08
2023-01-01T20:29:20.693Z,48.60
2023-01-01T20:34:23.912Z,46.25
2023-01-01T20:39:26.947Z,40.83
2023-01-01T20:44:30.421Z,46.33
2023-01-01T20:49:33.192Z,54.40
2023-01-01T20:54:36.045Z,47.97
2023-01-01T20:59:39.130Z,45.30
2023-01-01T21:04:42.092Z,47.83
2023-01-01T21:09:44.855Z,48.60
2023-01-01T21:14:48.026Z,41.20
2023-01-01T21:19:54.567Z,36.50
2023-01-01T21:25:16.849Z,37.08
2023-01-01T21:30:21.580Z,34.23
2023-01-01T21:35:31.882Z,34.38
2023-01-01T21:40:37.595Z,40.05
2023-01-01T21:45:45.035Z,38.87
2023-01-01T21:50:49.774Z,36.28
2023-01-01T21:55:54.436Z,39.93
2023-01-01T22:00:57.445Z,42.20
2023-01-01T22:06:00.284Z,37.85
2023-01-01T22:11:03.207Z,39.10
2023-01-01T22:16:10.083Z,40.53
2023-01-01T22:21:18.428Z,42.30
2023-01-01T22:26:28.093Z,42.60
2023-01-01T22:31:33.723Z,38.15
2023-01-01T22:36:37.036Z,44.77
2023-01-01T22:41:40.508Z,42.08
2023-01-01T22:46:43.434Z,47.47
2023-01-01T22:51:47.740Z,40.80
2023-01-01T22:56:50.564Z,41.67
2023-01-01T23:01:53.401Z,38.17
2023-01-01T23:06:56.553Z,41.83
2023-01-01T23:11:59.412Z,43.57
2023-01-01T23:17:02.146Z,38.70
2023-01-01T23:22:05.039Z,40.78
2023-01-01T23:27:09.617Z,40.57
2023-01-01T23:32:13.791Z,43.63
2023-01-01T23:37:17.038Z,41.00
2023-01-01T23:42:19.951Z,37.75
2023-01-01T23:47:22.720Z,39.13
2023-01-01T23:52:25.607Z,37.33
2023-01-01T23:57:28.365Z,40.03
